Meteo Giornale » Osservazioni meteo Italia » Palermo-Punta Raisi

ore: 09:20 - Osservazioni Meteo Palermo-Punta Raisi
Lat. 38° 11' N Lon. 13° 6' E Alt. 21 metri s.l.m.

sereno Europe/Rome

16 °C

Sereno

Temp. 24 Ore

15 °C

24 °C

Ovest/Sud-Ovest

25.9 Km/h

Dew point 12 °C

Umidità 77 %

Visibilità  8 Km

Il sole sorge alle ore 06:42

Il sole tramonta alle ore 17:58

Data e Ora Cielo e Fenomeni T °C DP °C Um. % Pres. hPa Vis. km Vento km/h
Oggi h: 09:20 sereno Sereno 16 12 77 1011 8 O/SO 25.9
Oggi h: 08:50 sereno Sereno 17 12 72 1011 8 S/SO 22.2
Oggi h: 07:20 sereno Sereno 15 12 82 1010 8 S/SO 18.5
Oggi h: 06:50 sereno Sereno 15 12 82 1010 8 S/SO 18.5
Oggi h: 06:20 sereno Sereno 15 13 87 1009 8 S/SO 25.9
Oggi h: 05:50 sereno Sereno 16 13 82 1009 7 SO 24
Oggi h: 05:20 sereno Sereno 16 13 82 1009 7 O 29.6
Oggi h: 04:20 sereno Sereno 18 11 63 1008 7 S/SO 31.5
Oggi h: 03:20 sereno Sereno 19 10 55 1009 7 S/SO 25.9
Oggi h: 02:50 sereno Sereno 19 9 52 1008 7 S/SO 35.2
Oggi h: 01:50 sereno Sereno 20 8 45 1008 7 SO 25.9
Oggi h: 01:20 sereno Sereno 20 8 45 1008 7 22.2
Oggi h: 00:20 sereno Sereno 22 6 35 1008 7 S/SO 31.5
Ieri h: 23:20 sereno Sereno 24 3 25 1008 8 S 38.8
Ieri h: 22:50 sereno Sereno 23 4 28 1009 7 S 40.7
Ieri h: 22:20 sereno Sereno 22 3 28 1009 7 S/SO 38.8
Ieri h: 21:50 sereno Sereno 21 7 40 1009 7 SO 42.6
Ieri h: 21:20 sereno Sereno 23 4 28 1009 7 S 37
Ieri h: 20:50 sereno Sereno 23 4 28 1009 8 S 46.3
Ieri h: 20:20 sereno Sereno 23 4 28 1010 8 S 37
Ieri h: 19:50 sereno Sereno 22 4 30 1011 7 S 29.6
Ieri h: 19:20 sereno Sereno 21 6 37 1010 7 S/SO 31.5
Ieri h: 18:50 sereno Sereno 22 4 30 1010 7 S/SO 33.3
Ieri h: 18:20 sereno Sereno 23 3 26 1009 7 S 37
Ieri h: 17:50 sereno Sereno 23 3 26 1010 7 S 40.7
Ieri h: 17:20 sereno Sereno 24 3 25 1010 7 S 42.6
Ieri h: 16:50 sereno Sereno 23 5 31 1010 8 S 29.6
Ieri h: 16:20 sereno Sereno 16 13 82 1011 8 N 5.5
Ieri h: 15:50 sereno Sereno 16 13 82 1011 8 N/NE 18.5
Ieri h: 15:20 sereno Sereno 17 12 72 1011 8 NE 14.8
Ieri h: 14:50 sereno Sereno 18 11 63 1012 8 N 5.5
Ieri h: 14:20 sereno Sereno 18 12 67 1013 8 SO 9.3
Ieri h: 13:50 sereno Sereno 16 13 82 1013 8 N/NE 11.1
Ieri h: 13:20 sereno Sereno 17 11 67 1012 8 E/NE 18.5
Ieri h: 12:50 sereno Sereno 18 10 59 1013 8 E/NE 14.8
Ieri h: 12:20 sereno Sereno 20 9 49 1013 8 SO 14.8
Ieri h: 11:50 sereno Sereno 21 7 40 1014 8 S/SO 31.5
Ieri h: 11:20 sereno Sereno 19 9 52 1015 8 SO 29.6
Ieri h: 10:50 sereno Sereno 17 11 67 1015 10 N 3.7